sensor_id;sensor_type;location;lat;lon;timestamp;P1;durP1;ratioP1;P2;durP2;ratioP2
18793;SDS011;29610;49.022;12.114;2023-08-21T00:01:33;22.07;;;12.83;;
18793;SDS011;29610;49.022;12.114;2023-08-21T00:04:02;22.37;;;13.03;;
18793;SDS011;29610;49.022;12.114;2023-08-21T00:06:32;22.10;;;12.10;;
18793;SDS011;29610;49.022;12.114;2023-08-21T00:09:00;25.10;;;12.87;;
18793;SDS011;29610;49.022;12.114;2023-08-21T00:11:29;25.00;;;13.43;;
18793;SDS011;29610;49.022;12.114;2023-08-21T00:13:58;20.53;;;11.60;;
18793;SDS011;29610;49.022;12.114;2023-08-21T00:16:27;23.50;;;12.50;;
18793;SDS011;29610;49.022;12.114;2023-08-21T00:18:55;21.07;;;12.07;;
18793;SDS011;29610;49.022;12.114;2023-08-21T00:21:24;24.67;;;13.20;;
18793;SDS011;29610;49.022;12.114;2023-08-21T00:23:54;19.50;;;11.90;;
18793;SDS011;29610;49.022;12.114;2023-08-21T00:26:22;22.93;;;12.23;;
18793;SDS011;29610;49.022;12.114;2023-08-21T00:28:50;18.63;;;10.50;;
18793;SDS011;29610;49.022;12.114;2023-08-21T00:31:19;18.90;;;12.37;;
18793;SDS011;29610;49.022;12.114;2023-08-21T00:33:47;19.80;;;11.87;;
18793;SDS011;29610;49.022;12.114;2023-08-21T00:36:15;25.60;;;13.30;;
18793;SDS011;29610;49.022;12.114;2023-08-21T00:38:45;17.50;;;11.57;;
18793;SDS011;29610;49.022;12.114;2023-08-21T00:41:16;19.17;;;12.50;;
18793;SDS011;29610;49.022;12.114;2023-08-21T00:43:45;26.93;;;12.17;;
18793;SDS011;29610;49.022;12.114;2023-08-21T00:46:13;24.37;;;13.67;;
18793;SDS011;29610;49.022;12.114;2023-08-21T00:48:44;24.23;;;13.73;;
18793;SDS011;29610;49.022;12.114;2023-08-21T00:51:12;21.70;;;14.83;;
18793;SDS011;29610;49.022;12.114;2023-08-21T00:53:43;23.53;;;13.20;;
18793;SDS011;29610;49.022;12.114;2023-08-21T00:56:13;22.03;;;13.27;;
18793;SDS011;29610;49.022;12.114;2023-08-21T00:58:43;26.40;;;12.63;;
18793;SDS011;29610;49.022;12.114;2023-08-21T01:01:12;21.50;;;13.20;;
18793;SDS011;29610;49.022;12.114;2023-08-21T01:03:45;23.50;;;13.00;;
18793;SDS011;29610;49.022;12.114;2023-08-21T01:06:13;19.93;;;12.23;;
18793;SDS011;29610;49.022;12.114;2023-08-21T01:08:42;20.83;;;13.30;;
18793;SDS011;29610;49.022;12.114;2023-08-21T01:11:24;21.37;;;13.43;;
18793;SDS011;29610;49.022;12.114;2023-08-21T01:14:06;28.37;;;12.50;;
18793;SDS011;29610;49.022;12.114;2023-08-21T01:16:44;18.10;;;11.70;;
18793;SDS011;29610;49.022;12.114;2023-08-21T01:19:18;18.97;;;12.67;;
18793;SDS011;29610;49.022;12.114;2023-08-21T01:21:58;21.60;;;13.70;;
18793;SDS011;29610;49.022;12.114;2023-08-21T01:24:28;21.07;;;13.20;;
18793;SDS011;29610;49.022;12.114;2023-08-21T01:26:56;27.53;;;12.47;;
18793;SDS011;29610;49.022;12.114;2023-08-21T01:29:25;28.30;;;12.70;;
18793;SDS011;29610;49.022;12.114;2023-08-21T01:31:57;19.23;;;12.10;;
18793;SDS011;29610;49.022;12.114;2023-08-21T01:34:36;22.57;;;14.60;;
18793;SDS011;29610;49.022;12.114;2023-08-21T01:37:06;21.70;;;13.83;;
18793;SDS011;29610;49.022;12.114;2023-08-21T01:39:38;22.50;;;12.70;;
18793;SDS011;29610;49.022;12.114;2023-08-21T01:42:06;24.40;;;12.87;;
18793;SDS011;29610;49.022;12.114;2023-08-21T01:44:34;22.93;;;13.33;;
18793;SDS011;29610;49.022;12.114;2023-08-21T01:47:03;26.47;;;14.70;;
18793;SDS011;29610;49.022;12.114;2023-08-21T01:49:31;22.97;;;13.73;;
18793;SDS011;29610;49.022;12.114;2023-08-21T01:51:59;20.93;;;12.57;;
18793;SDS011;29610;49.022;12.114;2023-08-21T01:54:28;20.70;;;13.03;;
18793;SDS011;29610;49.022;12.114;2023-08-21T01:56:58;23.80;;;14.50;;
18793;SDS011;29610;49.022;12.114;2023-08-21T01:59:26;25.60;;;14.57;;
18793;SDS011;29610;49.022;12.114;2023-08-21T02:01:56;23.83;;;14.50;;
18793;SDS011;29610;49.022;12.114;2023-08-21T02:04:24;22.10;;;13.70;;
18793;SDS011;29610;49.022;12.114;2023-08-21T02:06:52;22.90;;;13.80;;
18793;SDS011;29610;49.022;12.114;2023-08-21T02:09:21;23.20;;;13.80;;
18793;SDS011;29610;49.022;12.114;2023-08-21T02:11:49;21.40;;;13.80;;
18793;SDS011;29610;49.022;12.114;2023-08-21T02:14:19;26.10;;;14.50;;
18793;SDS011;29610;49.022;12.114;2023-08-21T02:16:47;20.57;;;12.50;;
18793;SDS011;29610;49.022;12.114;2023-08-21T02:19:16;24.53;;;15.10;;
18793;SDS011;29610;49.022;12.114;2023-08-21T02:21:44;21.60;;;13.07;;
18793;SDS011;29610;49.022;12.114;2023-08-21T02:24:13;23.63;;;13.77;;
18793;SDS011;29610;49.022;12.114;2023-08-21T02:26:41;24.67;;;15.90;;
18793;SDS011;29610;49.022;12.114;2023-08-21T02:29:12;21.07;;;14.67;;
18793;SDS011;29610;49.022;12.114;2023-08-21T02:31:42;21.47;;;13.60;;
18793;SDS011;29610;49.022;12.114;2023-08-21T02:34:11;21.63;;;13.13;;
18793;SDS011;29610;49.022;12.114;2023-08-21T02:36:39;21.07;;;13.53;;
18793;SDS011;29610;49.022;12.114;2023-08-21T02:39:07;22.77;;;14.80;;
18793;SDS011;29610;49.022;12.114;2023-08-21T02:41:35;22.73;;;13.87;;
18793;SDS011;29610;49.022;12.114;2023-08-21T02:44:04;22.67;;;14.80;;
18793;SDS011;29610;49.022;12.114;2023-08-21T02:46:32;20.70;;;13.17;;
18793;SDS011;29610;49.022;12.114;2023-08-21T02:49:04;21.50;;;13.90;;
18793;SDS011;29610;49.022;12.114;2023-08-21T02:51:32;22.17;;;13.97;;
18793;SDS011;29610;49.022;12.114;2023-08-21T02:54:01;22.07;;;14.53;;
18793;SDS011;29610;49.022;12.114;2023-08-21T02:56:29;20.50;;;13.37;;
18793;SDS011;29610;49.022;12.114;2023-08-21T02:58:57;19.87;;;12.93;;
18793;SDS011;29610;49.022;12.114;2023-08-21T03:01:26;20.80;;;12.03;;
18793;SDS011;29610;49.022;12.114;2023-08-21T03:03:54;19.77;;;12.93;;
18793;SDS011;29610;49.022;12.114;2023-08-21T03:06:23;26.03;;;14.50;;
18793;SDS011;29610;49.022;12.114;2023-08-21T03:08:53;24.73;;;13.70;;
18793;SDS011;29610;49.022;12.114;2023-08-21T03:11:21;21.87;;;12.90;;
18793;SDS011;29610;49.022;12.114;2023-08-21T03:13:51;25.40;;;13.80;;
18793;SDS011;29610;49.022;12.114;2023-08-21T03:16:20;23.40;;;14.10;;
18793;SDS011;29610;49.022;12.114;2023-08-21T03:18:55;32.67;;;14.27;;
18793;SDS011;29610;49.022;12.114;2023-08-21T03:21:30;21.97;;;13.50;;
18793;SDS011;29610;49.022;12.114;2023-08-21T03:23:59;20.33;;;12.80;;
18793;SDS011;29610;49.022;12.114;2023-08-21T03:26:31;27.00;;;14.20;;
18793;SDS011;29610;49.022;12.114;2023-08-21T03:28:59;23.73;;;13.70;;
18793;SDS011;29610;49.022;12.114;2023-08-21T03:31:28;20.50;;;13.57;;
18793;SDS011;29610;49.022;12.114;2023-08-21T03:33:57;20.73;;;12.37;;
18793;SDS011;29610;49.022;12.114;2023-08-21T03:36:26;24.57;;;13.73;;
18793;SDS011;29610;49.022;12.114;2023-08-21T03:39:01;21.87;;;12.53;;
18793;SDS011;29610;49.022;12.114;2023-08-21T03:41:36;19.20;;;12.77;;
18793;SDS011;29610;49.022;12.114;2023-08-21T03:44:04;20.00;;;13.00;;
18793;SDS011;29610;49.022;12.114;2023-08-21T03:46:32;23.73;;;12.30;;
18793;SDS011;29610;49.022;12.114;2023-08-21T03:49:00;18.13;;;11.27;;
18793;SDS011;29610;49.022;12.114;2023-08-21T03:51:29;23.20;;;12.60;;
18793;SDS011;29610;49.022;12.114;2023-08-21T03:53:57;22.27;;;12.90;;
18793;SDS011;29610;49.022;12.114;2023-08-21T03:56:27;20.63;;;12.43;;
18793;SDS011;29610;49.022;12.114;2023-08-21T03:58:55;19.80;;;12.03;;
18793;SDS011;29610;49.022;12.114;2023-08-21T04:01:23;21.23;;;13.40;;
18793;SDS011;29610;49.022;12.114;2023-08-21T04:03:52;18.37;;;12.17;;
18793;SDS011;29610;49.022;12.114;2023-08-21T04:06:20;22.37;;;12.90;;
18793;SDS011;29610;49.022;12.114;2023-08-21T04:08:48;26.57;;;13.77;;
18793;SDS011;29610;49.022;12.114;2023-08-21T04:11:18;23.10;;;13.07;;
18793;SDS011;29610;49.022;12.114;2023-08-21T04:13:47;18.90;;;12.00;;
18793;SDS011;29610;49.022;12.114;2023-08-21T04:16:15;23.23;;;11.43;;
18793;SDS011;29610;49.022;12.114;2023-08-21T04:18:45;18.30;;;11.63;;
18793;SDS011;29610;49.022;12.114;2023-08-21T04:21:13;22.63;;;13.93;;
18793;SDS011;29610;49.022;12.114;2023-08-21T04:23:41;19.03;;;12.73;;
18793;SDS011;29610;49.022;12.114;2023-08-21T04:26:12;21.10;;;13.43;;
18793;SDS011;29610;49.022;12.114;2023-08-21T04:28:40;19.90;;;13.00;;
18793;SDS011;29610;49.022;12.114;2023-08-21T04:31:10;27.87;;;14.57;;
18793;SDS011;29610;49.022;12.114;2023-08-21T04:33:38;20.20;;;13.23;;
18793;SDS011;29610;49.022;12.114;2023-08-21T04:36:07;19.50;;;13.80;;
18793;SDS011;29610;49.022;12.114;2023-08-21T04:38:41;20.27;;;13.20;;
18793;SDS011;29610;49.022;12.114;2023-08-21T04:41:09;22.50;;;13.40;;
18793;SDS011;29610;49.022;12.114;2023-08-21T04:43:41;23.23;;;13.97;;
18793;SDS011;29610;49.022;12.114;2023-08-21T04:46:11;21.03;;;13.70;;
18793;SDS011;29610;49.022;12.114;2023-08-21T04:48:41;23.73;;;14.70;;
18793;SDS011;29610;49.022;12.114;2023-08-21T04:51:11;24.57;;;15.13;;
18793;SDS011;29610;49.022;12.114;2023-08-21T04:53:40;27.13;;;16.30;;
18793;SDS011;29610;49.022;12.114;2023-08-21T04:56:12;24.70;;;15.23;;
18793;SDS011;29610;49.022;12.114;2023-08-21T04:58:42;28.07;;;14.77;;
18793;SDS011;29610;49.022;12.114;2023-08-21T05:01:12;31.90;;;14.83;;
18793;SDS011;29610;49.022;12.114;2023-08-21T05:03:44;25.10;;;15.03;;
18793;SDS011;29610;49.022;12.114;2023-08-21T05:06:12;25.13;;;16.83;;
18793;SDS011;29610;49.022;12.114;2023-08-21T05:08:41;24.10;;;16.20;;
18793;SDS011;29610;49.022;12.114;2023-08-21T05:11:10;22.90;;;15.23;;
18793;SDS011;29610;49.022;12.114;2023-08-21T05:13:41;23.80;;;15.63;;
18793;SDS011;29610;49.022;12.114;2023-08-21T05:16:13;22.53;;;15.00;;
18793;SDS011;29610;49.022;12.114;2023-08-21T05:18:41;24.63;;;15.17;;
18793;SDS011;29610;49.022;12.114;2023-08-21T05:21:10;24.50;;;14.57;;
18793;SDS011;29610;49.022;12.114;2023-08-21T05:23:39;23.27;;;13.73;;
18793;SDS011;29610;49.022;12.114;2023-08-21T05:26:09;21.17;;;14.40;;
18793;SDS011;29610;49.022;12.114;2023-08-21T05:28:37;22.43;;;12.40;;
18793;SDS011;29610;49.022;12.114;2023-08-21T05:31:05;21.80;;;13.90;;
18793;SDS011;29610;49.022;12.114;2023-08-21T05:33:51;26.10;;;12.30;;
18793;SDS011;29610;49.022;12.114;2023-08-21T05:36:20;25.63;;;12.53;;
18793;SDS011;29610;49.022;12.114;2023-08-21T05:38:48;21.63;;;12.97;;
18793;SDS011;29610;49.022;12.114;2023-08-21T05:41:17;20.93;;;12.87;;
18793;SDS011;29610;49.022;12.114;2023-08-21T05:43:47;19.63;;;12.80;;
18793;SDS011;29610;49.022;12.114;2023-08-21T05:46:15;20.23;;;12.50;;
18793;SDS011;29610;49.022;12.114;2023-08-21T05:48:44;20.13;;;12.10;;
18793;SDS011;29610;49.022;12.114;2023-08-21T05:51:13;17.87;;;12.30;;
18793;SDS011;29610;49.022;12.114;2023-08-21T05:53:42;22.83;;;11.53;;
18793;SDS011;29610;49.022;12.114;2023-08-21T05:56:10;22.33;;;12.77;;
18793;SDS011;29610;49.022;12.114;2023-08-21T05:58:39;21.00;;;12.00;;
18793;SDS011;29610;49.022;12.114;2023-08-21T06:01:10;19.97;;;12.70;;
18793;SDS011;29610;49.022;12.114;2023-08-21T06:03:39;20.70;;;12.23;;
18793;SDS011;29610;49.022;12.114;2023-08-21T06:06:41;22.97;;;11.87;;
18793;SDS011;29610;49.022;12.114;2023-08-21T06:09:09;18.37;;;11.13;;
18793;SDS011;29610;49.022;12.114;2023-08-21T06:11:38;19.63;;;13.07;;
18793;SDS011;29610;49.022;12.114;2023-08-21T06:14:07;19.70;;;11.30;;
18793;SDS011;29610;49.022;12.114;2023-08-21T06:16:35;21.07;;;11.87;;
18793;SDS011;29610;49.022;12.114;2023-08-21T06:19:04;21.40;;;11.70;;
18793;SDS011;29610;49.022;12.114;2023-08-21T06:21:32;17.70;;;11.43;;
18793;SDS011;29610;49.022;12.114;2023-08-21T06:24:02;19.57;;;12.00;;
18793;SDS011;29610;49.022;12.114;2023-08-21T06:26:31;21.47;;;11.60;;
18793;SDS011;29610;49.022;12.114;2023-08-21T06:28:59;21.37;;;11.90;;
18793;SDS011;29610;49.022;12.114;2023-08-21T06:31:27;21.37;;;11.20;;
18793;SDS011;29610;49.022;12.114;2023-08-21T06:33:56;31.97;;;11.53;;
18793;SDS011;29610;49.022;12.114;2023-08-21T06:36:24;21.50;;;11.63;;
18793;SDS011;29610;49.022;12.114;2023-08-21T06:38:53;17.90;;;10.33;;
18793;SDS011;29610;49.022;12.114;2023-08-21T06:41:23;20.00;;;11.67;;
18793;SDS011;29610;49.022;12.114;2023-08-21T06:43:51;22.70;;;11.30;;
18793;SDS011;29610;49.022;12.114;2023-08-21T06:46:20;20.50;;;11.07;;
18793;SDS011;29610;49.022;12.114;2023-08-21T06:48:49;21.57;;;10.23;;
18793;SDS011;29610;49.022;12.114;2023-08-21T06:51:17;21.00;;;10.90;;
18793;SDS011;29610;49.022;12.114;2023-08-21T06:53:45;28.37;;;10.40;;
18793;SDS011;29610;49.022;12.114;2023-08-21T06:56:14;16.20;;;10.93;;
18793;SDS011;29610;49.022;12.114;2023-08-21T06:58:44;20.97;;;11.50;;
18793;SDS011;29610;49.022;12.114;2023-08-21T07:01:12;17.03;;;9.60;;
18793;SDS011;29610;49.022;12.114;2023-08-21T07:03:41;17.47;;;10.67;;
18793;SDS011;29610;49.022;12.114;2023-08-21T07:06:09;18.23;;;10.70;;
18793;SDS011;29610;49.022;12.114;2023-08-21T07:08:37;22.23;;;11.40;;
18793;SDS011;29610;49.022;12.114;2023-08-21T07:11:07;19.87;;;11.07;;
18793;SDS011;29610;49.022;12.114;2023-08-21T07:13:36;23.80;;;11.30;;
18793;SDS011;29610;49.022;12.114;2023-08-21T07:16:06;27.53;;;10.23;;
18793;SDS011;29610;49.022;12.114;2023-08-21T07:18:35;29.60;;;10.30;;
18793;SDS011;29610;49.022;12.114;2023-08-21T07:21:03;20.90;;;9.50;;
18793;SDS011;29610;49.022;12.114;2023-08-21T07:23:52;29.07;;;10.23;;
18793;SDS011;29610;49.022;12.114;2023-08-21T07:26:20;17.53;;;8.90;;
18793;SDS011;29610;49.022;12.114;2023-08-21T07:28:48;17.43;;;8.03;;
18793;SDS011;29610;49.022;12.114;2023-08-21T07:31:19;19.00;;;8.27;;
18793;SDS011;29610;49.022;12.114;2023-08-21T07:33:48;18.60;;;9.37;;
18793;SDS011;29610;49.022;12.114;2023-08-21T07:36:16;19.60;;;8.33;;
18793;SDS011;29610;49.022;12.114;2023-08-21T07:38:44;15.73;;;9.80;;
18793;SDS011;29610;49.022;12.114;2023-08-21T07:41:13;20.10;;;8.73;;
18793;SDS011;29610;49.022;12.114;2023-08-21T07:43:41;17.43;;;9.40;;
18793;SDS011;29610;49.022;12.114;2023-08-21T07:46:12;14.23;;;7.73;;
18793;SDS011;29610;49.022;12.114;2023-08-21T07:48:44;21.13;;;8.50;;
18793;SDS011;29610;49.022;12.114;2023-08-21T07:51:13;16.90;;;8.47;;
18793;SDS011;29610;49.022;12.114;2023-08-21T07:53:41;19.20;;;8.93;;
18793;SDS011;29610;49.022;12.114;2023-08-21T07:56:09;18.73;;;8.50;;
18793;SDS011;29610;49.022;12.114;2023-08-21T07:58:38;20.03;;;8.17;;
18793;SDS011;29610;49.022;12.114;2023-08-21T08:01:06;20.87;;;8.90;;
18793;SDS011;29610;49.022;12.114;2023-08-21T08:03:34;19.03;;;7.80;;
18793;SDS011;29610;49.022;12.114;2023-08-21T08:06:05;17.97;;;8.90;;
18793;SDS011;29610;49.022;12.114;2023-08-21T08:08:33;14.77;;;7.97;;
18793;SDS011;29610;49.022;12.114;2023-08-21T08:11:02;12.57;;;7.47;;
18793;SDS011;29610;49.022;12.114;2023-08-21T08:13:32;19.37;;;8.13;;
18793;SDS011;29610;49.022;12.114;2023-08-21T08:16:00;18.13;;;8.47;;
18793;SDS011;29610;49.022;12.114;2023-08-21T08:18:29;15.70;;;7.93;;
18793;SDS011;29610;49.022;12.114;2023-08-21T08:20:57;14.57;;;7.40;;
18793;SDS011;29610;49.022;12.114;2023-08-21T08:23:26;17.73;;;8.60;;
18793;SDS011;29610;49.022;12.114;2023-08-21T08:25:55;29.60;;;8.33;;
18793;SDS011;29610;49.022;12.114;2023-08-21T08:28:23;16.10;;;9.07;;
18793;SDS011;29610;49.022;12.114;2023-08-21T08:30:51;15.30;;;7.40;;
18793;SDS011;29610;49.022;12.114;2023-08-21T08:33:20;17.73;;;7.47;;
18793;SDS011;29610;49.022;12.114;2023-08-21T08:35:48;15.03;;;7.73;;
18793;SDS011;29610;49.022;12.114;2023-08-21T08:38:17;16.73;;;7.70;;
18793;SDS011;29610;49.022;12.114;2023-08-21T08:40:48;15.00;;;7.90;;
18793;SDS011;29610;49.022;12.114;2023-08-21T08:43:22;16.87;;;8.60;;
18793;SDS011;29610;49.022;12.114;2023-08-21T08:45:52;17.50;;;7.87;;
18793;SDS011;29610;49.022;12.114;2023-08-21T08:48:25;16.80;;;7.70;;
18793;SDS011;29610;49.022;12.114;2023-08-21T08:50:54;17.90;;;7.67;;
18793;SDS011;29610;49.022;12.114;2023-08-21T08:53:24;14.70;;;8.33;;
18793;SDS011;29610;49.022;12.114;2023-08-21T08:55:56;23.07;;;9.50;;
18793;SDS011;29610;49.022;12.114;2023-08-21T08:58:24;15.50;;;8.50;;
18793;SDS011;29610;49.022;12.114;2023-08-21T09:00:53;19.30;;;7.57;;
18793;SDS011;29610;49.022;12.114;2023-08-21T09:03:22;23.40;;;7.97;;
18793;SDS011;29610;49.022;12.114;2023-08-21T09:05:50;27.27;;;8.33;;
18793;SDS011;29610;49.022;12.114;2023-08-21T09:08:18;16.43;;;8.00;;
18793;SDS011;29610;49.022;12.114;2023-08-21T09:10:47;17.93;;;8.27;;
18793;SDS011;29610;49.022;12.114;2023-08-21T09:13:17;20.27;;;7.80;;
18793;SDS011;29610;49.022;12.114;2023-08-21T09:15:47;19.47;;;8.73;;
18793;SDS011;29610;49.022;12.114;2023-08-21T09:18:19;22.27;;;7.40;;
18793;SDS011;29610;49.022;12.114;2023-08-21T09:20:47;18.63;;;7.30;;
18793;SDS011;29610;49.022;12.114;2023-08-21T09:23:16;14.47;;;7.60;;
18793;SDS011;29610;49.022;12.114;2023-08-21T09:25:47;16.40;;;7.30;;
18793;SDS011;29610;49.022;12.114;2023-08-21T09:28:19;16.07;;;7.80;;
18793;SDS011;29610;49.022;12.114;2023-08-21T09:30:48;12.33;;;6.80;;
18793;SDS011;29610;49.022;12.114;2023-08-21T09:33:19;23.80;;;7.80;;
18793;SDS011;29610;49.022;12.114;2023-08-21T09:35:49;18.33;;;8.10;;
18793;SDS011;29610;49.022;12.114;2023-08-21T09:38:20;20.73;;;8.00;;
18793;SDS011;29610;49.022;12.114;2023-08-21T09:40:52;18.30;;;8.60;;
18793;SDS011;29610;49.022;12.114;2023-08-21T09:43:23;21.13;;;8.07;;
18793;SDS011;29610;49.022;12.114;2023-08-21T09:45:53;20.50;;;8.30;;
18793;SDS011;29610;49.022;12.114;2023-08-21T09:48:23;14.90;;;7.43;;
18793;SDS011;29610;49.022;12.114;2023-08-21T09:50:54;14.20;;;7.50;;
18793;SDS011;29610;49.022;12.114;2023-08-21T09:53:23;16.17;;;7.33;;
18793;SDS011;29610;49.022;12.114;2023-08-21T09:56:03;19.50;;;7.50;;
18793;SDS011;29610;49.022;12.114;2023-08-21T09:58:33;12.50;;;7.13;;
18793;SDS011;29610;49.022;12.114;2023-08-21T10:01:04;20.07;;;7.63;;
18793;SDS011;29610;49.022;12.114;2023-08-21T10:03:40;17.00;;;6.80;;
18793;SDS011;29610;49.022;12.114;2023-08-21T10:06:15;18.67;;;7.63;;
18793;SDS011;29610;49.022;12.114;2023-08-21T10:08:48;27.30;;;8.40;;
18793;SDS011;29610;49.022;12.114;2023-08-21T10:11:21;14.40;;;6.97;;
18793;SDS011;29610;49.022;12.114;2023-08-21T10:13:52;12.57;;;7.00;;
18793;SDS011;29610;49.022;12.114;2023-08-21T10:16:21;21.50;;;7.57;;
18793;SDS011;29610;49.022;12.114;2023-08-21T10:18:51;15.53;;;6.90;;
18793;SDS011;29610;49.022;12.114;2023-08-21T10:21:20;18.13;;;6.40;;
18793;SDS011;29610;49.022;12.114;2023-08-21T10:23:53;12.60;;;6.40;;
18793;SDS011;29610;49.022;12.114;2023-08-21T10:26:23;14.30;;;6.20;;
18793;SDS011;29610;49.022;12.114;2023-08-21T10:29:00;13.13;;;6.67;;
18793;SDS011;29610;49.022;12.114;2023-08-21T10:31:33;12.10;;;6.00;;
18793;SDS011;29610;49.022;12.114;2023-08-21T10:34:05;16.67;;;6.37;;
18793;SDS011;29610;49.022;12.114;2023-08-21T10:36:38;16.63;;;6.83;;
18793;SDS011;29610;49.022;12.114;2023-08-21T10:39:28;11.57;;;6.13;;
18793;SDS011;29610;49.022;12.114;2023-08-21T10:41:58;14.30;;;6.43;;
18793;SDS011;29610;49.022;12.114;2023-08-21T10:47:30;13.47;;;6.30;;
18793;SDS011;29610;49.022;12.114;2023-08-21T10:50:02;10.03;;;5.33;;
18793;SDS011;29610;49.022;12.114;2023-08-21T10:52:35;14.27;;;5.93;;
18793;SDS011;29610;49.022;12.114;2023-08-21T10:55:07;11.17;;;6.00;;
18793;SDS011;29610;49.022;12.114;2023-08-21T10:57:36;12.53;;;5.57;;
18793;SDS011;29610;49.022;12.114;2023-08-21T11:00:08;10.43;;;5.93;;
18793;SDS011;29610;49.022;12.114;2023-08-21T11:02:40;12.90;;;5.80;;
18793;SDS011;29610;49.022;12.114;2023-08-21T11:05:10;14.03;;;6.00;;
18793;SDS011;29610;49.022;12.114;2023-08-21T11:07:41;12.60;;;5.50;;
18793;SDS011;29610;49.022;12.114;2023-08-21T11:10:12;16.20;;;6.30;;
18793;SDS011;29610;49.022;12.114;2023-08-21T11:12:49;11.73;;;5.40;;
18793;SDS011;29610;49.022;12.114;2023-08-21T11:15:20;10.30;;;5.33;;
18793;SDS011;29610;49.022;12.114;2023-08-21T11:17:53;13.77;;;5.70;;
18793;SDS011;29610;49.022;12.114;2023-08-21T11:20:27;10.97;;;5.63;;
18793;SDS011;29610;49.022;12.114;2023-08-21T11:22:57;11.43;;;4.87;;
18793;SDS011;29610;49.022;12.114;2023-08-21T11:25:27;14.60;;;5.33;;
18793;SDS011;29610;49.022;12.114;2023-08-21T11:27:55;9.17;;;4.50;;
18793;SDS011;29610;49.022;12.114;2023-08-21T11:30:25;12.00;;;5.03;;
18793;SDS011;29610;49.022;12.114;2023-08-21T11:33:04;9.30;;;5.13;;
18793;SDS011;29610;49.022;12.114;2023-08-21T11:35:34;10.77;;;5.60;;
18793;SDS011;29610;49.022;12.114;2023-08-21T11:38:03;11.93;;;4.90;;
18793;SDS011;29610;49.022;12.114;2023-08-21T11:40:35;12.00;;;4.80;;
18793;SDS011;29610;49.022;12.114;2023-08-21T11:43:04;15.93;;;4.90;;
18793;SDS011;29610;49.022;12.114;2023-08-21T11:45:35;11.00;;;5.57;;
18793;SDS011;29610;49.022;12.114;2023-08-21T11:48:23;9.60;;;4.70;;
18793;SDS011;29610;49.022;12.114;2023-08-21T11:50:52;11.43;;;4.97;;
18793;SDS011;29610;49.022;12.114;2023-08-21T11:53:30;12.77;;;5.17;;
18793;SDS011;29610;49.022;12.114;2023-08-21T11:56:00;8.97;;;4.73;;
18793;SDS011;29610;49.022;12.114;2023-08-21T11:58:28;9.70;;;5.27;;
18793;SDS011;29610;49.022;12.114;2023-08-21T12:01:03;10.07;;;4.90;;
18793;SDS011;29610;49.022;12.114;2023-08-21T12:03:35;11.87;;;4.57;;
18793;SDS011;29610;49.022;12.114;2023-08-21T12:06:05;8.90;;;4.40;;
18793;SDS011;29610;49.022;12.114;2023-08-21T12:08:35;10.20;;;4.30;;
18793;SDS011;29610;49.022;12.114;2023-08-21T12:11:04;9.80;;;4.40;;
18793;SDS011;29610;49.022;12.114;2023-08-21T12:13:32;10.07;;;4.70;;
18793;SDS011;29610;49.022;12.114;2023-08-21T12:16:03;11.80;;;4.30;;
18793;SDS011;29610;49.022;12.114;2023-08-21T12:18:31;14.43;;;4.77;;
18793;SDS011;29610;49.022;12.114;2023-08-21T12:21:00;9.93;;;4.20;;
18793;SDS011;29610;49.022;12.114;2023-08-21T12:23:28;9.10;;;4.53;;
18793;SDS011;29610;49.022;12.114;2023-08-21T12:25:56;10.13;;;4.50;;
18793;SDS011;29610;49.022;12.114;2023-08-21T12:28:24;13.17;;;4.70;;
18793;SDS011;29610;49.022;12.114;2023-08-21T12:30:53;17.53;;;5.07;;
18793;SDS011;29610;49.022;12.114;2023-08-21T12:33:22;11.33;;;5.30;;
18793;SDS011;29610;49.022;12.114;2023-08-21T12:35:51;9.97;;;4.60;;
18793;SDS011;29610;49.022;12.114;2023-08-21T12:38:19;8.30;;;4.73;;
18793;SDS011;29610;49.022;12.114;2023-08-21T12:40:48;10.23;;;4.63;;
18793;SDS011;29610;49.022;12.114;2023-08-21T12:43:16;12.17;;;4.33;;
18793;SDS011;29610;49.022;12.114;2023-08-21T12:45:44;8.40;;;4.30;;
18793;SDS011;29610;49.022;12.114;2023-08-21T12:48:12;14.60;;;4.80;;
18793;SDS011;29610;49.022;12.114;2023-08-21T12:50:42;9.77;;;4.10;;
18793;SDS011;29610;49.022;12.114;2023-08-21T12:53:10;9.23;;;5.40;;
18793;SDS011;29610;49.022;12.114;2023-08-21T12:55:39;9.20;;;4.30;;
18793;SDS011;29610;49.022;12.114;2023-08-21T12:58:07;10.50;;;4.43;;
18793;SDS011;29610;49.022;12.114;2023-08-21T13:00:35;11.13;;;4.87;;
18793;SDS011;29610;49.022;12.114;2023-08-21T13:03:03;8.70;;;4.97;;
18793;SDS011;29610;49.022;12.114;2023-08-21T13:05:32;10.40;;;4.70;;
18793;SDS011;29610;49.022;12.114;2023-08-21T13:08:02;9.10;;;5.50;;
18793;SDS011;29610;49.022;12.114;2023-08-21T13:10:31;11.27;;;5.20;;
18793;SDS011;29610;49.022;12.114;2023-08-21T13:12:59;10.63;;;5.33;;
18793;SDS011;29610;49.022;12.114;2023-08-21T13:15:27;9.17;;;4.77;;
18793;SDS011;29610;49.022;12.114;2023-08-21T13:17:56;12.90;;;5.53;;
18793;SDS011;29610;49.022;12.114;2023-08-21T13:20:25;9.00;;;4.80;;
18793;SDS011;29610;49.022;12.114;2023-08-21T13:22:53;12.47;;;5.40;;
18793;SDS011;29610;49.022;12.114;2023-08-21T13:25:23;13.17;;;5.37;;
18793;SDS011;29610;49.022;12.114;2023-08-21T13:27:52;10.43;;;5.20;;
18793;SDS011;29610;49.022;12.114;2023-08-21T13:30:20;11.33;;;5.70;;
18793;SDS011;29610;49.022;12.114;2023-08-21T13:32:49;10.20;;;5.30;;
18793;SDS011;29610;49.022;12.114;2023-08-21T13:35:18;10.80;;;5.30;;
18793;SDS011;29610;49.022;12.114;2023-08-21T13:37:49;11.80;;;5.67;;
18793;SDS011;29610;49.022;12.114;2023-08-21T13:40:18;11.53;;;5.03;;
18793;SDS011;29610;49.022;12.114;2023-08-21T13:42:47;18.10;;;5.87;;
18793;SDS011;29610;49.022;12.114;2023-08-21T13:45:17;12.80;;;5.70;;
18793;SDS011;29610;49.022;12.114;2023-08-21T13:47:47;13.40;;;5.77;;
18793;SDS011;29610;49.022;12.114;2023-08-21T13:50:17;16.30;;;5.43;;
18793;SDS011;29610;49.022;12.114;2023-08-21T13:52:46;9.23;;;5.20;;
18793;SDS011;29610;49.022;12.114;2023-08-21T13:55:15;9.90;;;4.67;;
18793;SDS011;29610;49.022;12.114;2023-08-21T13:57:44;13.90;;;5.33;;
18793;SDS011;29610;49.022;12.114;2023-08-21T14:00:14;10.87;;;5.87;;
18793;SDS011;29610;49.022;12.114;2023-08-21T14:02:44;12.13;;;6.00;;
18793;SDS011;29610;49.022;12.114;2023-08-21T14:05:13;11.00;;;4.97;;
18793;SDS011;29610;49.022;12.114;2023-08-21T14:07:41;13.30;;;5.63;;
18793;SDS011;29610;49.022;12.114;2023-08-21T14:10:10;10.43;;;5.97;;
18793;SDS011;29610;49.022;12.114;2023-08-21T14:12:40;12.57;;;6.13;;
18793;SDS011;29610;49.022;12.114;2023-08-21T14:15:08;10.63;;;5.70;;
18793;SDS011;29610;49.022;12.114;2023-08-21T14:17:39;15.13;;;6.53;;
18793;SDS011;29610;49.022;12.114;2023-08-21T14:20:09;12.47;;;6.33;;
18793;SDS011;29610;49.022;12.114;2023-08-21T14:22:39;12.27;;;6.20;;
18793;SDS011;29610;49.022;12.114;2023-08-21T14:25:07;12.53;;;5.90;;
18793;SDS011;29610;49.022;12.114;2023-08-21T14:27:37;11.37;;;6.30;;
18793;SDS011;29610;49.022;12.114;2023-08-21T14:30:06;10.10;;;5.80;;
18793;SDS011;29610;49.022;12.114;2023-08-21T14:32:35;12.53;;;6.33;;
18793;SDS011;29610;49.022;12.114;2023-08-21T14:35:06;10.73;;;5.50;;